Time;durP1;ratioP1;P1;durP2;ratioP2;P2;SDS_P1;SDS_P2;PMS_P1;PMS_P2;Temp;Humidity;BMP_temperature;BMP_pressure;BME280_temperature;BME280_humidity;BME280_pressure;Samples;Min_cycle;Max_cycle;Signal;HPM_P1;HPM_P2
2021/01/23 00:03:50;;;;;;;18.23;9.13;;;;;;;5.00;100.00;94452.13;10454511;28;20037;-77
2021/01/23 00:08:51;;;;;;;13.30;7.32;;;;;;;4.92;100.00;94461.31;10454125;28;20025;-77
2021/01/23 00:13:51;;;;;;;19.50;8.00;;;;;;;4.84;100.00;94473.19;10453934;28;20024;-77
2021/01/23 00:18:51;;;;;;;14.30;7.83;;;;;;;4.70;100.00;94435.47;10453725;28;20032;-78
2021/01/23 00:23:52;;;;;;;15.40;7.60;;;;;;;4.79;100.00;94441.16;10472213;28;20370;-77
2021/01/23 00:28:52;;;;;;;11.97;6.33;;;;;;;4.59;100.00;94469.09;10476630;28;20629;-77
2021/01/23 00:33:53;;;;;;;12.70;6.77;;;;;;;4.55;100.00;94472.47;10534114;28;20281;-77
2021/01/23 00:38:54;;;;;;;14.33;7.40;;;;;;;4.38;100.00;94464.47;10535752;28;20338;-77
2021/01/23 00:43:55;;;;;;;18.42;7.45;;;;;;;4.46;100.00;94469.41;10536347;28;20269;-77
2021/01/23 00:48:55;;;;;;;16.27;7.60;;;;;;;4.11;100.00;94489.03;10534554;28;20028;-77
2021/01/23 00:53:55;;;;;;;13.10;7.00;;;;;;;4.22;100.00;94432.28;10534502;28;20824;-77
2021/01/23 00:58:56;;;;;;;14.43;6.47;;;;;;;4.28;100.00;94475.75;10535685;28;20294;-77
2021/01/23 01:03:56;;;;;;;13.27;6.93;;;;;;;4.33;100.00;94437.81;10533862;28;20089;-77
2021/01/23 01:08:56;;;;;;;11.97;6.63;;;;;;;4.40;100.00;94454.41;10534815;28;20403;-77
2021/01/23 01:13:57;;;;;;;13.63;7.00;;;;;;;4.51;100.00;94448.19;10576545;28;20752;-77
2021/01/23 01:18:57;;;;;;;13.83;7.10;;;;;;;4.39;100.00;94431.50;10576758;28;20297;-77
2021/01/23 01:23:57;;;;;;;14.60;6.30;;;;;;;4.57;100.00;94433.91;10576589;28;20105;-77
2021/01/23 01:28:58;;;;;;;12.73;6.23;;;;;;;4.34;100.00;94428.75;10558182;28;20019;-77
2021/01/23 01:33:58;;;;;;;14.40;8.17;;;;;;;4.35;100.00;94425.84;10576295;28;20039;-77
2021/01/23 01:38:59;;;;;;;14.48;7.25;;;;;;;4.37;100.00;94417.66;10576183;28;20330;-77
2021/01/23 01:43:59;;;;;;;12.93;7.13;;;;;;;4.23;100.00;94412.63;10575175;28;20020;-78
2021/01/23 01:49:01;;;;;;;9.97;6.07;;;;;;;4.11;100.00;94410.03;10575950;28;20269;-77
2021/01/23 01:54:02;;;;;;;15.48;6.63;;;;;;;3.98;100.00;94441.44;10575688;28;20536;-77
2021/01/23 01:59:03;;;;;;;12.30;6.85;;;;;;;4.11;100.00;94419.88;10575191;28;20055;-77
2021/01/23 02:04:16;;;;;;;14.17;7.40;;;;;;;4.18;100.00;94403.78;10575346;28;20106;-78
2021/01/23 02:09:44;;;;;;;11.52;6.30;;;;;;;4.35;100.00;94403.78;10591021;27;20265;-78
2021/01/23 02:15:02;;;;;;;12.10;5.67;;;;;;;4.42;100.00;94389.25;10574483;28;20034;-77
2021/01/23 02:20:30;;;;;;;8.77;4.95;;;;;;;4.61;100.00;94365.03;10573566;28;20043;-78
2021/01/23 02:25:37;;;;;;;9.80;5.37;;;;;;;4.75;100.00;94403.56;10574117;28;20024;-77
2021/01/23 02:30:45;;;;;;;12.77;5.70;;;;;;;4.81;100.00;94374.38;10574206;28;20514;-78
2021/01/23 02:35:46;;;;;;;14.02;6.90;;;;;;;4.71;100.00;94375.03;10573999;28;20474;-78
2021/01/23 02:40:47;;;;;;;8.43;4.65;;;;;;;4.85;100.00;94351.53;10573957;28;20031;-78
2021/01/23 02:45:48;;;;;;;12.98;5.32;;;;;;;4.87;100.00;94354.72;10574307;28;20028;-78
2021/01/23 02:50:49;;;;;;;8.13;4.82;;;;;;;4.88;100.00;94356.34;10573023;28;20164;-77
2021/01/23 02:55:55;;;;;;;7.78;4.97;;;;;;;5.01;100.00;94363.16;10573326;28;20088;-77
2021/01/23 03:01:00;;;;;;;6.88;4.85;;;;;;;5.11;100.00;94340.13;10554729;28;20040;-77
2021/01/23 03:06:03;;;;;;;11.50;6.40;;;;;;;5.05;100.00;94348.31;10554477;28;20059;-77
2021/01/23 03:11:07;;;;;;;11.02;5.95;;;;;;;5.09;100.00;94358.22;10572512;28;20051;-78
2021/01/23 03:16:08;;;;;;;13.95;6.07;;;;;;;5.10;100.00;94335.06;10572463;28;20059;-78
2021/01/23 03:21:09;;;;;;;9.95;6.05;;;;;;;5.10;100.00;94337.72;10572558;28;20051;-78
2021/01/23 03:26:09;;;;;;;15.47;6.67;;;;;;;5.13;100.00;94335.38;10572347;28;20495;-78
2021/01/23 03:31:09;;;;;;;12.63;6.05;;;;;;;4.86;100.00;94345.16;10577258;28;20270;-78
2021/01/23 03:36:10;;;;;;;15.27;5.87;;;;;;;4.86;100.00;94353.94;10581091;28;20036;-78
2021/01/23 03:41:10;;;;;;;11.07;5.83;;;;;;;4.89;100.00;94321.47;10581108;28;21227;-78
2021/01/23 03:46:12;;;;;;;11.98;6.97;;;;;;;4.93;100.00;94324.47;10580703;28;20347;-78
2021/01/23 03:51:13;;;;;;;14.70;6.93;;;;;;;4.62;100.00;94314.22;10579515;28;20028;-78
2021/01/23 03:56:13;;;;;;;13.18;7.43;;;;;;;4.70;100.00;94317.50;10580703;28;20028;-78
2021/01/23 04:01:13;;;;;;;12.33;6.67;;;;;;;4.66;100.00;94317.22;10579349;28;20058;-78
2021/01/23 04:06:14;;;;;;;16.70;8.40;;;;;;;4.73;100.00;94312.50;10580039;28;20033;-77
2021/01/23 04:11:14;;;;;;;13.40;7.88;;;;;;;4.72;100.00;94331.41;10579770;28;20076;-78
2021/01/23 04:16:15;;;;;;;14.57;7.40;;;;;;;4.65;100.00;94333.41;10579639;28;20087;-78
2021/01/23 04:21:15;;;;;;;15.60;7.80;;;;;;;4.66;100.00;94345.66;10579861;28;20044;-78
2021/01/23 04:26:16;;;;;;;14.80;8.45;;;;;;;4.52;100.00;94355.84;10579342;28;20275;-78
2021/01/23 04:31:16;;;;;;;14.85;8.57;;;;;;;4.61;100.00;94349.88;10578234;28;20101;-78
2021/01/23 04:36:17;;;;;;;19.00;7.87;;;;;;;4.72;100.00;94315.41;10578930;28;20024;-77
2021/01/23 04:41:17;;;;;;;8.98;5.55;;;;;;;4.81;100.00;94313.91;10577918;28;20815;-77
2021/01/23 04:46:18;;;;;;;11.57;7.00;;;;;;;4.82;100.00;94338.72;10578197;28;20023;-77
2021/01/23 04:51:18;;;;;;;15.02;7.75;;;;;;;4.96;100.00;94331.97;10578200;28;20028;-77
2021/01/23 04:56:19;;;;;;;17.00;8.40;;;;;;;5.08;100.00;94331.81;10577777;28;20035;-77
2021/01/23 05:01:19;;;;;;;10.95;6.22;;;;;;;5.19;100.00;94317.59;10577243;28;20277;-77
2021/01/23 05:06:20;;;;;;;12.35;6.65;;;;;;;5.10;100.00;94329.72;10558024;28;20038;-77
2021/01/23 05:11:21;;;;;;;13.05;6.63;;;;;;;5.21;100.00;94307.47;10576872;28;20077;-77
2021/01/23 05:16:25;;;;;;;16.20;6.10;;;;;;;5.28;100.00;94302.75;10577036;28;20087;-75
2021/01/23 05:21:25;;;;;;;11.25;5.85;;;;;;;5.20;100.00;94287.22;10542973;28;20070;-77
2021/01/23 05:26:26;;;;;;;8.48;5.47;;;;;;;5.38;100.00;94283.41;10547742;28;20088;-76
2021/01/23 05:31:26;;;;;;;12.17;6.43;;;;;;;5.50;100.00;94280.59;10576914;28;20024;-77
2021/01/23 05:36:27;;;;;;;14.60;6.50;;;;;;;5.60;100.00;94283.34;10537616;28;20637;-77
2021/01/23 05:41:27;;;;;;;13.60;6.97;;;;;;;5.68;100.00;94276.75;10534150;28;20352;-77
2021/01/23 05:46:28;;;;;;;12.43;6.23;;;;;;;5.53;100.00;94274.75;10533897;28;20023;-77
2021/01/23 05:51:28;;;;;;;22.30;7.90;;;;;;;5.44;100.00;94254.94;10532600;28;20035;-78
2021/01/23 05:56:29;;;;;;;13.27;6.67;;;;;;;5.29;100.00;94255.63;10533714;28;20028;-77
2021/01/23 06:01:33;;;;;;;15.70;7.68;;;;;;;5.36;100.00;94234.06;10574224;28;20380;-76
2021/01/23 06:06:46;;;;;;;12.20;6.43;;;;;;;5.34;100.00;94230.88;10575687;28;20478;-76
2021/01/23 06:11:46;;;;;;;15.25;7.80;;;;;;;5.42;100.00;94225.88;10556656;28;20020;-76
2021/01/23 06:16:47;;;;;;;14.13;8.50;;;;;;;5.50;100.00;94232.63;10555595;28;20118;-87
2021/01/23 06:21:48;;;;;;;14.07;7.93;;;;;;;5.55;100.00;94229.97;10537021;28;20040;-88
2021/01/23 06:26:55;;;;;;;13.60;7.05;;;;;;;5.56;100.00;94212.13;10552373;28;20792;-86
2021/01/23 06:31:55;;;;;;;11.30;6.05;;;;;;;5.58;100.00;94208.16;10522813;28;20051;-76
2021/01/23 06:37:30;;;;;;;14.20;6.70;;;;;;;5.69;100.00;94225.03;10573008;28;20106;-74
2021/01/23 06:42:31;;;;;;;17.58;9.68;;;;;;;5.35;100.00;94235.94;10557269;28;20293;-74
2021/01/23 06:47:38;;;;;;;18.80;10.25;;;;;;;5.42;100.00;94246.41;10558442;28;20046;-75
2021/01/23 06:52:49;;;;;;;21.80;11.80;;;;;;;5.49;100.00;94225.66;10540364;28;20039;-74
2021/01/23 06:57:50;;;;;;;27.73;12.40;;;;;;;5.33;100.00;94254.06;10555198;28;20023;-75
2021/01/23 07:02:50;;;;;;;21.73;11.52;;;;;;;5.23;100.00;94254.75;10542517;28;20016;-75
2021/01/23 07:07:51;;;;;;;21.10;11.23;;;;;;;5.27;100.00;94250.53;10530225;28;20099;-75
2021/01/23 07:12:51;;;;;;;23.95;11.57;;;;;;;5.17;100.00;94266.41;10529498;28;20034;-76
2021/01/23 07:17:51;;;;;;;21.90;11.43;;;;;;;4.95;100.00;94248.63;10511405;28;20106;-76
2021/01/23 07:22:52;;;;;;;26.10;12.63;;;;;;;4.89;100.00;94262.09;10553900;28;20089;-77
2021/01/23 07:27:52;;;;;;;23.85;12.32;;;;;;;4.93;100.00;94250.69;10572688;28;20020;-76
2021/01/23 07:32:53;;;;;;;25.33;12.00;;;;;;;5.34;100.00;94246.84;10572289;28;20429;-76
2021/01/23 07:37:56;;;;;;;24.83;12.13;;;;;;;5.38;100.00;94251.41;10551176;28;20491;-75
2021/01/23 07:42:58;;;;;;;24.52;13.05;;;;;;;5.83;100.00;94230.72;10531721;28;20028;-74
2021/01/23 07:48:00;;;;;;;28.55;13.38;;;;;;;5.98;100.00;94233.53;10571660;28;20390;-75
2021/01/23 07:53:12;;;;;;;26.05;13.60;;;;;;;6.12;100.00;94217.88;10544147;28;20034;-76
2021/01/23 07:58:13;;;;;;;25.77;13.38;;;;;;;6.38;100.00;94227.91;10511546;28;20024;-78
2021/01/23 08:03:14;;;;;;;27.02;13.43;;;;;;;6.28;100.00;94233.97;10529823;28;20024;-77
2021/01/23 08:08:32;;;;;;;31.75;15.07;;;;;;;6.74;100.00;94222.72;10529200;28;20398;-76
2021/01/23 08:13:34;;;;;;;26.42;14.85;;;;;;;7.07;100.00;94231.38;10529143;28;20108;-78
2021/01/23 08:18:34;;;;;;;25.52;13.77;;;;;;;7.28;100.00;94243.72;10535539;28;20028;-78
2021/01/23 08:23:35;;;;;;;30.02;14.32;;;;;;;7.35;100.00;94220.22;10518421;28;20084;-77
2021/01/23 08:28:37;;;;;;;29.10;14.50;;;;;;;7.79;100.00;94210.09;10536094;28;20081;-77
2021/01/23 08:33:37;;;;;;;26.73;13.43;;;;;;;7.84;100.00;94234.97;10536702;28;20028;-75
2021/01/23 08:38:38;;;;;;;31.35;13.23;;;;;;;8.31;100.00;94238.38;10535952;28;20023;-77
2021/01/23 08:43:38;;;;;;;20.88;12.40;;;;;;;8.62;100.00;94227.59;10524097;28;20042;-77
2021/01/23 08:48:38;;;;;;;27.73;12.37;;;;;;;9.11;98.80;94215.38;10535809;28;20089;-77
2021/01/23 08:53:39;;;;;;;31.23;12.00;;;;;;;9.35;95.07;94214.66;10516851;28;20472;-77
2021/01/23 08:58:39;;;;;;;21.27;11.17;;;;;;;9.88;89.69;94206.00;10516924;28;20270;-77
2021/01/23 09:03:40;;;;;;;33.92;14.60;;;;;;;10.23;86.23;94201.38;10534997;28;20294;-77
2021/01/23 09:08:40;;;;;;;40.97;18.27;;;;;;;10.39;85.56;94194.75;10534695;28;20024;-77
2021/01/23 09:13:40;;;;;;;45.40;17.73;;;;;;;10.46;81.50;94215.13;10534742;28;20055;-77
2021/01/23 09:18:41;;;;;;;49.43;18.33;;;;;;;10.98;79.05;94197.34;10533983;28;20035;-77
2021/01/23 09:23:41;;;;;;;48.00;19.13;;;;;;;11.46;76.15;94194.50;10533752;28;20816;-77
2021/01/23 09:28:41;;;;;;;39.33;18.08;;;;;;;10.99;77.76;94206.97;10532727;28;20838;-77
2021/01/23 09:33:42;;;;;;;33.57;15.27;;;;;;;11.67;72.95;94150.34;10515394;28;20020;-77
2021/01/23 09:38:42;;;;;;;37.90;15.97;;;;;;;11.75;70.06;94160.44;10533054;28;20491;-77
2021/01/23 09:43:43;;;;;;;43.45;15.88;;;;;;;10.41;81.21;94179.19;10533419;28;20032;-77
2021/01/23 09:48:43;;;;;;;59.27;16.77;;;;;;;10.81;78.26;94168.22;10532721;28;20119;-77
2021/01/23 09:53:43;;;;;;;39.57;16.93;;;;;;;10.81;78.97;94156.69;10546681;28;20031;-77
2021/01/23 09:58:44;;;;;;;36.87;18.03;;;;;;;10.71;80.25;94155.72;10574398;27;20054;-77
2021/01/23 10:03:44;;;;;;;34.63;17.77;;;;;;;10.48;82.75;94151.16;10562218;28;20281;-77
2021/01/23 10:08:45;;;;;;;40.73;20.90;;;;;;;10.12;88.59;94130.84;10571715;28;20372;-77
2021/01/23 10:13:45;;;;;;;62.43;21.67;;;;;;;10.09;88.29;94124.16;10540958;28;20270;-77
2021/01/23 10:18:45;;;;;;;51.58;20.88;;;;;;;9.81;93.23;94133.03;10526112;28;20100;-77
2021/01/23 10:23:46;;;;;;;63.28;22.98;;;;;;;9.72;97.30;94119.44;10539724;28;20096;-76
2021/01/23 10:28:46;;;;;;;40.40;18.33;;;;;;;9.80;94.61;94100.03;10563074;28;20032;-78
2021/01/23 10:33:46;;;;;;;57.47;21.07;;;;;;;9.85;95.69;94085.75;10549444;28;20285;-77
2021/01/23 10:38:47;;;;;;;42.67;19.17;;;;;;;9.83;96.49;94061.09;10545902;28;20761;-77
2021/01/23 10:43:47;;;;;;;56.85;21.77;;;;;;;10.01;93.80;94054.97;10571579;28;20402;-77
2021/01/23 10:48:48;;;;;;;55.47;22.07;;;;;;;10.08;92.09;94050.06;10565817;28;20035;-77
2021/01/23 10:53:48;;;;;;;56.60;24.13;;;;;;;9.88;93.24;94043.06;10565206;28;20350;-78
2021/01/23 10:58:49;;;;;;;41.95;19.80;;;;;;;9.96;91.46;94040.81;10549069;28;20043;-78
2021/01/23 11:03:49;;;;;;;41.77;20.07;;;;;;;9.88;92.01;94021.59;10565760;28;20046;-77
2021/01/23 11:08:50;;;;;;;46.03;18.90;;;;;;;9.70;95.21;94008.91;10550498;28;20150;-77
2021/01/23 11:13:50;;;;;;;38.03;18.08;;;;;;;9.44;96.84;93992.28;10567830;28;20031;-77
2021/01/23 11:18:51;;;;;;;35.92;17.20;;;;;;;9.24;98.92;93996.78;10566605;28;20084;-77
2021/01/23 11:23:51;;;;;;;51.80;19.23;;;;;;;9.29;100.00;93990.53;10566883;28;20108;-77
2021/01/23 11:28:52;;;;;;;35.03;17.73;;;;;;;9.30;100.00;93986.78;10563188;28;20043;-78
2021/01/23 11:33:52;;;;;;;41.40;17.13;;;;;;;9.38;100.00;93970.88;10566629;28;20066;-78
2021/01/23 11:38:53;;;;;;;28.30;13.50;;;;;;;9.26;100.00;93951.69;10563259;28;20093;-77
2021/01/23 11:43:53;;;;;;;26.27;11.82;;;;;;;9.31;100.00;93964.28;10560980;28;20709;-77
2021/01/23 11:48:53;;;;;;;32.17;12.90;;;;;;;9.22;100.00;93954.16;10570109;28;20028;-78
2021/01/23 11:53:54;;;;;;;42.37;16.23;;;;;;;9.34;100.00;93929.63;10562695;28;20668;-78
2021/01/23 11:58:54;;;;;;;44.63;15.37;;;;;;;9.32;100.00;93921.06;10558732;28;20386;-77
2021/01/23 12:03:58;;;;;;;32.37;12.43;;;;;;;9.34;100.00;93916.22;10536407;28;20406;-77
2021/01/23 12:08:58;;;;;;;27.38;12.13;;;;;;;9.04;100.00;93920.81;10518098;28;20715;-77
2021/01/23 12:13:59;;;;;;;25.80;11.63;;;;;;;9.10;100.00;93905.50;10517621;28;20031;-77
2021/01/23 12:18:59;;;;;;;29.80;12.90;;;;;;;9.27;100.00;93910.41;10534346;28;20039;-76
2021/01/23 12:23:59;;;;;;;26.90;11.80;;;;;;;9.34;100.00;93899.34;10534756;28;20292;-76
2021/01/23 12:29:01;;;;;;;31.73;12.05;;;;;;;9.47;100.00;93889.78;10534519;28;20039;-77
2021/01/23 12:34:01;;;;;;;20.67;10.50;;;;;;;9.37;100.00;93899.53;10534558;28;20410;-77
2021/01/23 12:39:02;;;;;;;28.13;13.30;;;;;;;9.20;100.00;93893.84;10533583;28;20028;-77
2021/01/23 12:44:03;;;;;;;28.17;12.07;;;;;;;9.22;100.00;93878.28;10533035;28;20646;-79
2021/01/23 12:49:03;;;;;;;23.15;11.52;;;;;;;9.58;100.00;93872.50;10533208;28;20441;-76
2021/01/23 12:54:04;;;;;;;39.63;16.00;;;;;;;9.61;100.00;93866.53;10533313;28;20073;-73
2021/01/23 12:59:04;;;;;;;29.27;13.07;;;;;;;9.86;100.00;93848.50;10562185;28;20028;-72
2021/01/23 13:04:05;;;;;;;31.60;12.83;;;;;;;10.21;97.22;93836.44;10556057;28;20030;-73
2021/01/23 13:09:06;;;;;;;33.85;14.95;;;;;;;10.30;98.18;93828.53;10575187;28;20277;-74
2021/01/23 13:14:06;;;;;;;33.15;13.82;;;;;;;10.54;95.91;93812.28;10575211;28;20031;-73
2021/01/23 13:19:08;;;;;;;32.13;12.63;;;;;;;10.54;92.57;93812.28;10533597;28;20032;-73
2021/01/23 13:24:09;;;;;;;41.33;14.90;;;;;;;10.29;93.54;93820.75;10532325;28;20306;-73
2021/01/23 13:29:09;;;;;;;29.95;14.88;;;;;;;10.24;94.31;93835.88;10532308;28;20036;-73
2021/01/23 13:34:09;;;;;;;39.47;17.00;;;;;;;9.91;97.62;93837.72;10531956;28;20028;-73
2021/01/23 13:39:10;;;;;;;39.47;20.45;;;;;;;9.91;99.66;93821.59;10530722;28;20583;-73
2021/01/23 13:44:11;;;;;;;39.93;17.17;;;;;;;9.90;99.32;93825.38;10530793;28;20077;-73
2021/01/23 13:49:12;;;;;;;42.13;17.52;;;;;;;9.90;99.68;93828.84;10530442;28;20385;-73
2021/01/23 13:54:12;;;;;;;32.45;16.23;;;;;;;9.82;99.35;93817.97;10531130;28;20045;-73
2021/01/23 13:59:12;;;;;;;30.70;13.43;;;;;;;9.75;100.00;93826.38;10561240;28;20660;-74
2021/01/23 14:04:13;;;;;;;29.63;13.60;;;;;;;9.22;100.00;93838.88;10572257;28;20529;-73
2021/01/23 14:09:13;;;;;;;46.83;15.57;;;;;;;9.31;100.00;93825.63;10572267;28;20022;-73
2021/01/23 14:14:13;;;;;;;32.47;16.77;;;;;;;9.40;100.00;93802.47;10543725;28;20032;-73
2021/01/23 14:19:14;;;;;;;37.38;14.27;;;;;;;9.46;100.00;93813.09;10530240;28;20289;-73
2021/01/23 14:24:14;;;;;;;31.58;11.65;;;;;;;8.95;100.00;93839.44;10529034;28;20508;-73
2021/01/23 14:29:15;;;;;;;40.07;15.40;;;;;;;8.96;100.00;93800.03;10558690;28;20024;-73
2021/01/23 14:34:15;;;;;;;33.13;15.23;;;;;;;8.97;100.00;93807.81;10536082;28;20978;-73
2021/01/23 14:39:16;;;;;;;37.63;16.77;;;;;;;8.93;100.00;93828.22;10545419;28;20465;-73
2021/01/23 14:44:16;;;;;;;29.40;15.38;;;;;;;8.95;100.00;93801.91;10553575;28;20023;-73
2021/01/23 14:49:16;;;;;;;31.60;14.57;;;;;;;8.75;100.00;93802.97;10542841;28;20540;-73
2021/01/23 14:54:17;;;;;;;36.13;14.13;;;;;;;8.16;100.00;93788.75;10527644;28;20400;-73
2021/01/23 14:59:17;;;;;;;46.83;15.60;;;;;;;8.15;100.00;93776.44;10559448;28;20313;-73
2021/01/23 15:04:17;;;;;;;33.77;15.30;;;;;;;8.22;100.00;93776.94;10561264;28;20342;-72
2021/01/23 15:09:19;;;;;;;38.07;15.17;;;;;;;8.22;100.00;93779.63;10562981;28;20455;-73
2021/01/23 15:14:19;;;;;;;28.23;12.93;;;;;;;8.09;100.00;93758.84;10551791;28;20038;-73
2021/01/23 15:19:20;;;;;;;29.50;13.40;;;;;;;8.13;100.00;93776.72;10545461;28;20023;-75
2021/01/23 15:24:20;;;;;;;28.67;12.67;;;;;;;8.15;100.00;93795.19;10487775;28;20338;-74
2021/01/23 15:29:21;;;;;;;30.55;12.70;;;;;;;7.92;100.00;93794.81;10494048;28;20263;-74
2021/01/23 15:34:21;;;;;;;37.58;13.30;;;;;;;7.87;100.00;93762.78;10495287;28;20029;-74
2021/01/23 15:39:21;;;;;;;33.73;14.03;;;;;;;7.81;100.00;93745.16;10494628;28;20035;-74
2021/01/23 15:44:22;;;;;;;43.83;14.23;;;;;;;7.65;100.00;93739.94;10465744;28;20163;-73
2021/01/23 15:49:22;;;;;;;19.73;11.37;;;;;;;7.63;100.00;93768.84;10452870;28;20082;-74
2021/01/23 15:54:23;;;;;;;26.85;12.13;;;;;;;7.37;100.00;93765.53;10451698;28;20283;-74
2021/01/23 15:59:23;;;;;;;22.15;11.93;;;;;;;7.57;100.00;93758.47;10452178;28;20028;-74
2021/01/23 16:04:24;;;;;;;22.27;10.07;;;;;;;7.66;100.00;93754.91;10451232;28;20032;-73
2021/01/23 16:09:24;;;;;;;29.10;11.90;;;;;;;7.81;100.00;93731.78;10450543;28;20267;-73
2021/01/23 16:14:25;;;;;;;24.50;13.20;;;;;;;7.88;100.00;93729.59;10450213;28;20036;-73
2021/01/23 16:19:25;;;;;;;23.33;12.70;;;;;;;7.85;100.00;93740.84;10449082;28;20123;-74
2021/01/23 16:24:25;;;;;;;36.67;15.77;;;;;;;7.87;100.00;93747.53;10491663;28;20287;-74
2021/01/23 16:29:26;;;;;;;35.67;13.13;;;;;;;7.82;100.00;93738.75;10492929;28;20275;-74
2021/01/23 16:34:26;;;;;;;28.73;13.93;;;;;;;7.81;100.00;93716.53;10493122;28;20032;-75
2021/01/23 16:39:27;;;;;;;30.77;13.37;;;;;;;7.71;100.00;93708.59;10491668;28;20027;-73
2021/01/23 16:44:27;;;;;;;28.02;11.98;;;;;;;7.63;100.00;93712.69;10490111;28;20024;-73
2021/01/23 16:49:27;;;;;;;28.17;12.63;;;;;;;7.69;100.00;93711.56;10490097;28;20027;-74
2021/01/23 16:54:28;;;;;;;26.45;13.93;;;;;;;7.77;100.00;93704.81;10491599;28;20039;-74
2021/01/23 16:59:28;;;;;;;32.33;15.13;;;;;;;7.81;100.00;93697.00;10505662;28;20103;-74
2021/01/23 17:04:28;;;;;;;38.90;16.67;;;;;;;7.79;100.00;93691.94;10491210;28;20271;-75
2021/01/23 17:09:29;;;;;;;45.73;18.73;;;;;;;7.73;100.00;93681.56;10491255;28;20031;-74
2021/01/23 17:14:29;;;;;;;66.70;22.30;;;;;;;7.67;100.00;93692.34;10491250;28;20027;-73
2021/01/23 17:19:29;;;;;;;27.27;13.13;;;;;;;7.61;100.00;93680.06;10505984;28;20316;-73
2021/01/23 17:24:30;;;;;;;37.97;16.30;;;;;;;7.63;100.00;93685.94;10514646;28;20242;-74
2021/01/23 17:29:30;;;;;;;30.40;15.87;;;;;;;7.20;100.00;93680.38;10532929;28;20031;-74
2021/01/23 17:34:31;;;;;;;30.60;14.05;;;;;;;6.82;100.00;93680.88;10532324;28;20270;-73
2021/01/23 17:39:31;;;;;;;33.57;16.70;;;;;;;6.86;100.00;93667.75;10512441;28;20081;-73
2021/01/23 17:44:32;;;;;;;17.23;9.17;;;;;;;7.03;100.00;93648.69;10511486;28;20028;-73
2021/01/23 17:49:35;;;;;;;22.30;9.68;;;;;;;7.19;100.00;93620.00;10529326;28;20474;-73
2021/01/23 17:54:36;;;;;;;13.52;6.72;;;;;;;7.24;100.00;93611.94;10529232;28;20054;-76
2021/01/23 17:59:36;;;;;;;14.20;7.27;;;;;;;7.35;100.00;93612.66;10530539;28;20102;-73
2021/01/23 18:04:37;;;;;;;15.37;7.97;;;;;;;7.43;100.00;93646.00;10530960;28;20266;-73
2021/01/23 18:09:37;;;;;;;50.73;22.90;;;;;;;7.43;100.00;93646.78;10514616;28;20263;-73
2021/01/23 18:14:37;;;;;;;42.40;20.93;;;;;;;7.27;100.00;93637.28;10487792;28;20097;-73
2021/01/23 18:19:38;;;;;;;31.30;16.13;;;;;;;7.12;100.00;93625.66;10487645;28;20309;-73
2021/01/23 18:24:38;;;;;;;37.67;18.95;;;;;;;7.13;100.00;93621.91;10488562;28;20119;-73
2021/01/23 18:29:39;;;;;;;41.50;19.83;;;;;;;7.17;100.00;93630.97;10488618;28;20376;-73
2021/01/23 18:34:39;;;;;;;43.38;20.75;;;;;;;7.07;100.00;93628.34;10488359;28;20297;-73
2021/01/23 18:39:40;;;;;;;38.00;18.33;;;;;;;6.71;100.00;93622.44;10487744;28;20450;-73
2021/01/23 18:44:40;;;;;;;35.45;19.77;;;;;;;6.89;100.00;93632.47;10488123;28;20094;-74
2021/01/23 18:49:40;;;;;;;42.77;20.67;;;;;;;6.80;100.00;93639.50;10488312;28;20104;-74
2021/01/23 18:54:42;;;;;;;41.83;20.93;;;;;;;6.84;100.00;93619.97;10470038;28;20028;-74
2021/01/23 18:59:46;;;;;;;45.17;19.38;;;;;;;6.92;100.00;93620.44;10511579;28;20476;-74
2021/01/23 19:04:46;;;;;;;40.08;17.83;;;;;;;6.92;100.00;93609.75;10487250;28;20141;-74
2021/01/23 19:09:47;;;;;;;38.07;18.27;;;;;;;6.95;100.00;93607.34;10487273;28;20095;-74
2021/01/23 19:14:47;;;;;;;30.10;14.93;;;;;;;7.11;100.00;93597.34;10487831;28;20818;-74
2021/01/23 19:19:47;;;;;;;36.90;16.47;;;;;;;7.04;100.00;93607.53;10486603;28;20039;-74
2021/01/23 19:24:49;;;;;;;35.90;17.15;;;;;;;6.88;100.00;93598.03;10486515;28;20786;-73
2021/01/23 19:29:49;;;;;;;39.15;19.52;;;;;;;6.69;100.00;93598.69;10487336;28;20032;-73
2021/01/23 19:34:50;;;;;;;37.77;20.10;;;;;;;6.47;100.00;93583.91;10469321;28;20039;-73
2021/01/23 19:39:50;;;;;;;42.42;20.67;;;;;;;6.62;100.00;93577.66;10487197;28;20846;-74
2021/01/23 19:44:51;;;;;;;45.00;21.00;;;;;;;6.64;100.00;93577.38;10469356;28;20020;-73
2021/01/23 19:49:52;;;;;;;41.07;18.60;;;;;;;6.56;100.00;93585.94;10486765;28;20019;-73
2021/01/23 19:54:52;;;;;;;42.75;20.02;;;;;;;6.69;100.00;93585.34;10487135;28;20278;-73
2021/01/23 19:59:53;;;;;;;57.95;27.40;;;;;;;6.55;100.00;93574.50;10496369;28;20078;-73
2021/01/23 20:04:53;;;;;;;63.50;27.52;;;;;;;6.38;100.00;93582.03;10486508;28;20024;-73
2021/01/23 20:09:53;;;;;;;68.23;28.70;;;;;;;5.94;100.00;93603.00;10486805;28;20917;-73
2021/01/23 20:14:54;;;;;;;56.08;26.52;;;;;;;6.14;100.00;93586.19;10492960;28;20036;-73
2021/01/23 20:19:55;;;;;;;55.90;29.08;;;;;;;6.20;100.00;93564.81;10486151;28;20068;-73
2021/01/23 20:24:55;;;;;;;66.10;30.43;;;;;;;6.28;100.00;93564.22;10530511;28;20050;-74
2021/01/23 20:29:56;;;;;;;63.80;26.63;;;;;;;6.36;100.00;93585.00;10500579;28;20271;-74
2021/01/23 20:34:56;;;;;;;53.13;26.33;;;;;;;6.41;100.00;93584.97;10508734;28;20028;-73
2021/01/23 20:39:56;;;;;;;48.30;25.50;;;;;;;6.44;100.00;93575.63;10501920;28;20024;-74
2021/01/23 20:44:58;;;;;;;53.93;25.37;;;;;;;6.04;100.00;93582.75;10492972;28;20275;-74
2021/01/23 20:50:00;;;;;;;43.58;23.38;;;;;;;6.16;100.00;93565.34;10493192;28;20443;-74
2021/01/23 20:55:01;;;;;;;57.50;26.27;;;;;;;5.98;100.00;93581.97;10506301;28;20023;-74
2021/01/23 21:00:06;;;;;;;53.13;24.92;;;;;;;6.08;100.00;93583.81;10525316;28;20029;-74
2021/01/23 21:05:07;;;;;;;48.85;22.27;;;;;;;6.17;100.00;93579.50;10492618;28;20025;-74
2021/01/23 21:10:09;;;;;;;55.47;25.77;;;;;;;6.07;100.00;93574.19;10474909;28;20820;-75
2021/01/23 21:15:10;;;;;;;53.63;25.42;;;;;;;5.88;100.00;93582.78;10511901;28;20097;-74
2021/01/23 21:20:10;;;;;;;55.20;26.05;;;;;;;5.88;100.00;93588.09;10502488;28;20049;-74
2021/01/23 21:25:11;;;;;;;52.30;24.80;;;;;;;5.89;100.00;93579.03;10491902;28;20114;-75
2021/01/23 21:30:12;;;;;;;51.50;24.08;;;;;;;6.03;100.00;93562.47;10491107;28;20021;-74
2021/01/23 21:35:14;;;;;;;50.58;25.25;;;;;;;6.07;100.00;93568.84;10491668;28;20090;-74
2021/01/23 21:40:15;;;;;;;47.67;23.88;;;;;;;6.11;100.00;93532.56;10490437;28;20034;-75
2021/01/23 21:45:15;;;;;;;53.10;24.85;;;;;;;6.12;100.00;93539.50;10490940;28;20479;-76
2021/01/23 21:50:16;;;;;;;53.75;25.88;;;;;;;6.03;100.00;93557.97;10490181;28;20020;-76
2021/01/23 21:55:17;;;;;;;53.88;22.02;;;;;;;6.02;100.00;93579.56;10490299;28;20021;-76
2021/01/23 22:00:19;;;;;;;55.67;24.27;;;;;;;6.09;100.00;93564.06;10520046;28;20028;-75
2021/01/23 22:05:20;;;;;;;53.70;24.35;;;;;;;6.08;100.00;93562.47;10533101;28;20525;-75
2021/01/23 22:10:20;;;;;;;51.03;23.42;;;;;;;6.09;100.00;93588.06;10503185;28;20119;-75
2021/01/23 22:15:22;;;;;;;45.88;23.73;;;;;;;6.21;100.00;93543.19;10489670;28;20128;-75
2021/01/23 22:20:22;;;;;;;35.47;17.45;;;;;;;6.35;100.00;93532.72;10489520;28;20123;-75
2021/01/23 22:25:22;;;;;;;40.15;20.38;;;;;;;6.02;100.00;93545.69;10489933;28;20055;-75
2021/01/23 22:30:23;;;;;;;39.50;20.15;;;;;;;5.94;100.00;93539.00;10471073;28;20476;-75
2021/01/23 22:35:23;;;;;;;41.65;20.50;;;;;;;5.86;100.00;93517.44;10489074;28;20395;-75
2021/01/23 22:40:24;;;;;;;37.58;17.75;;;;;;;5.77;100.00;93523.34;10496540;28;20023;-76
2021/01/23 22:45:24;;;;;;;40.93;19.20;;;;;;;5.67;100.00;93512.75;10530493;28;20082;-75
2021/01/23 22:50:25;;;;;;;45.53;19.63;;;;;;;5.55;100.00;93494.38;10530046;28;20031;-75
2021/01/23 22:55:25;;;;;;;41.65;20.83;;;;;;;5.49;100.00;93508.78;10530708;28;20031;-75